Time;durP1;ratioP1;P1;durP2;ratioP2;P2;SDS_P1;SDS_P2;PMS_P1;PMS_P2;Temp;Humidity;BMP_temperature;BMP_pressure;BME280_temperature;BME280_humidity;BME280_pressure;Samples;Min_cycle;Max_cycle;Signal;HPM_P1;HPM_P2
2023/11/23 00:01:31;;;;;;;;;;;;;;;10.50;55.91;101402.09;4979672;27;99358;-62
2023/11/23 00:03:57;;;;;;;;;;;;;;;10.50;55.63;101399.38;4984947;27;119117;-67
2023/11/23 00:06:23;;;;;;;;;;;;;;;10.50;55.49;101388.59;4968580;27;99337;-62
2023/11/23 00:08:49;;;;;;;;;;;;;;;10.50;55.62;101381.31;4983863;27;98140;-62
2023/11/23 00:11:15;;;;;;;;;;;;;;;10.51;55.71;101379.44;4963128;27;125939;-61
2023/11/23 00:13:42;;;;;;;;;;;;;;;10.51;55.45;101374.88;4956554;27;123894;-66
2023/11/23 00:16:08;;;;;;;;;;;;;;;10.52;56.00;101372.97;4968915;27;98189;-62
2023/11/23 00:18:34;;;;;;;;;;;;;;;10.51;55.92;101366.78;4978152;27;98093;-62
2023/11/23 00:21:00;;;;;;;;;;;;;;;10.52;55.65;101362.19;4965142;27;130677;-62
2023/11/23 00:23:26;;;;;;;;;;;;;;;10.52;55.75;101354.13;4994892;27;98224;-62
2023/11/23 00:25:52;;;;;;;;;;;;;;;10.52;55.47;101349.53;4975799;27;115375;-66
2023/11/23 00:28:19;;;;;;;;;;;;;;;10.51;55.56;101339.81;4981764;27;105191;-62
2023/11/23 00:30:45;;;;;;;;;;;;;;;10.52;55.66;101336.06;4980758;27;99021;-62
2023/11/23 00:33:11;;;;;;;;;;;;;;;10.53;55.81;101337.72;4977346;27;98578;-66
2023/11/23 00:35:37;;;;;;;;;;;;;;;10.54;55.77;101333.13;4964189;27;100188;-61
2023/11/23 00:38:03;;;;;;;;;;;;;;;10.53;55.81;101318.84;4965253;27;127318;-66
2023/11/23 00:40:29;;;;;;;;;;;;;;;10.53;55.73;101320.69;4979166;27;97887;-61
2023/11/23 00:42:55;;;;;;;;;;;;;;;10.54;55.60;101325.03;4978193;27;122878;-62
2023/11/23 00:45:21;;;;;;;;;;;;;;;10.55;55.48;101323.97;4965580;27;125001;-66
2023/11/23 00:47:47;;;;;;;;;;;;;;;10.53;55.35;101321.53;4965735;27;128416;-67
2023/11/23 00:50:13;;;;;;;;;;;;;;;10.56;55.75;101315.63;4964701;27;97915;-66
2023/11/23 00:52:39;;;;;;;;;;;;;;;10.57;55.42;101330.75;4966195;27;103811;-62
2023/11/23 00:55:05;;;;;;;;;;;;;;;10.56;55.52;101314.81;4962596;27;98051;-66
2023/11/23 00:57:33;;;;;;;;;;;;;;;10.57;55.73;101319.97;4981531;27;99327;-66
2023/11/23 01:00:00;;;;;;;;;;;;;;;10.57;55.57;101306.50;4978719;27;98942;-66
2023/11/23 01:02:27;;;;;;;;;;;;;;;10.60;55.63;101315.13;4979193;27;98105;-62
2023/11/23 01:04:53;;;;;;;;;;;;;;;10.61;55.71;101311.38;4976045;27;98678;-66
2023/11/23 01:07:19;;;;;;;;;;;;;;;10.61;55.50;101312.22;4979806;27;127909;-61
2023/11/23 01:09:44;;;;;;;;;;;;;;;10.61;55.59;101309.53;4963561;27;127489;-62
2023/11/23 01:12:10;;;;;;;;;;;;;;;10.62;55.70;101313.84;4964722;27;104921;-62
2023/11/23 01:14:36;;;;;;;;;;;;;;;10.64;55.32;101294.72;4975904;27;108508;-66
2023/11/23 01:17:03;;;;;;;;;;;;;;;10.63;55.75;101283.13;4964270;27;100228;-66
2023/11/23 01:19:29;;;;;;;;;;;;;;;10.65;55.50;101274.75;4996351;27;101202;-66
2023/11/23 01:21:55;;;;;;;;;;;;;;;10.65;55.53;101263.97;4966982;27;109583;-61
2023/11/23 01:24:21;;;;;;;;;;;;;;;10.66;55.51;101242.19;4965877;27;127452;-66
2023/11/23 01:26:47;;;;;;;;;;;;;;;10.66;55.61;101247.56;4967020;27;99540;-66
2023/11/23 01:29:13;;;;;;;;;;;;;;;10.67;55.73;101235.72;4965204;27;110728;-61
2023/11/23 01:31:39;;;;;;;;;;;;;;;10.67;55.66;101224.13;4962354;27;98449;-66
2023/11/23 01:34:05;;;;;;;;;;;;;;;10.69;55.64;101222.81;4963940;27;98117;-65
2023/11/23 01:36:31;;;;;;;;;;;;;;;10.69;55.75;101213.88;4963984;27;99573;-66
2023/11/23 01:38:57;;;;;;;;;;;;;;;10.69;55.45;101209.34;4993469;27;127642;-66
2023/11/23 01:41:23;;;;;;;;;;;;;;;10.70;55.46;101202.88;4967683;27;98141;-64
2023/11/23 01:43:49;;;;;;;;;;;;;;;10.70;55.48;101210.97;4959735;27;98246;-61
2023/11/23 01:46:15;;;;;;;;;;;;;;;10.70;55.71;101200.16;4969697;27;100356;-66
2023/11/23 01:48:42;;;;;;;;;;;;;;;10.71;55.31;101193.69;4967551;27;99532;-62
2023/11/23 01:51:08;;;;;;;;;;;;;;;10.71;55.45;101199.09;4966054;27;98023;-66
2023/11/23 01:53:35;;;;;;;;;;;;;;;10.72;55.64;101202.59;4968656;27;101443;-62
2023/11/23 01:56:01;;;;;;;;;;;;;;;10.72;55.47;101219.59;4964306;27;98442;-62
2023/11/23 01:58:28;;;;;;;;;;;;;;;10.73;55.54;101218.56;4977669;27;97963;-66
2023/11/23 02:00:54;;;;;;;;;;;;;;;10.74;55.51;101220.19;4969734;27;98398;-66
2023/11/23 02:03:21;;;;;;;;;;;;;;;10.75;55.26;101223.69;4963718;27;98206;-66
2023/11/23 02:05:47;;;;;;;;;;;;;;;10.74;55.63;101209.38;4967515;27;97950;-66
2023/11/23 02:08:13;;;;;;;;;;;;;;;10.75;55.40;101213.69;4961584;27;106099;-61
2023/11/23 02:10:39;;;;;;;;;;;;;;;10.76;55.75;101214.53;4967534;27;99997;-62
2023/11/23 02:13:05;;;;;;;;;;;;;;;10.76;55.67;101201.84;4976564;27;129020;-62
2023/11/23 02:15:31;;;;;;;;;;;;;;;10.77;55.50;101191.91;4961802;27;100255;-66
2023/11/23 02:18:01;;;;;;;;;;;;;;;10.77;55.34;101165.75;4959865;27;98549;-66
2023/11/23 02:20:27;;;;;;;;;;;;;;;10.78;55.57;101169.25;4960288;27;98029;-66
2023/11/23 02:22:54;;;;;;;;;;;;;;;10.78;55.55;101169.25;4956576;27;98724;-66
2023/11/23 02:25:20;;;;;;;;;;;;;;;10.78;55.46;101161.16;4964431;27;100213;-62
2023/11/23 02:27:47;;;;;;;;;;;;;;;10.78;55.24;101158.47;4946305;27;98996;-61
2023/11/23 02:30:14;;;;;;;;;;;;;;;10.79;55.45;101165.47;4978273;27;98798;-66
2023/11/23 02:35:52;;;;;;;;;;;;;;;10.79;55.39;101160.91;4994438;27;98415;-61
2023/11/23 02:38:18;;;;;;;;;;;;;;;10.80;55.20;101164.41;4946544;27;99755;-62
2023/11/23 02:40:44;;;;;;;;;;;;;;;10.79;55.45;101155.50;4948991;27;122371;-62
2023/11/23 02:43:10;;;;;;;;;;;;;;;10.81;55.53;101153.38;4958119;27;126881;-62
2023/11/23 02:45:36;;;;;;;;;;;;;;;10.80;55.46;101140.94;4956000;27;98618;-66
2023/11/23 02:48:04;;;;;;;;;;;;;;;10.82;55.39;101129.94;4937901;28;99380;-66
2023/11/23 02:50:30;;;;;;;;;;;;;;;10.83;55.49;101134.25;4946678;27;98797;-62
2023/11/23 02:52:56;;;;;;;;;;;;;;;10.82;55.70;101133.44;4954983;27;101148;-66
2023/11/23 02:55:22;;;;;;;;;;;;;;;10.82;55.68;101136.13;4947978;27;100005;-61
2023/11/23 02:57:48;;;;;;;;;;;;;;;10.85;55.33;101134.00;4947028;27;99540;-61
2023/11/23 03:00:14;;;;;;;;;;;;;;;10.84;55.53;101135.88;4945560;27;123040;-62
2023/11/23 03:02:40;;;;;;;;;;;;;;;10.84;55.38;101122.38;4954422;27;98031;-66
2023/11/23 03:05:07;;;;;;;;;;;;;;;10.86;55.46;101119.44;4963238;27;101492;-61
2023/11/23 03:07:33;;;;;;;;;;;;;;;10.86;55.44;101122.97;4959161;27;98744;-61
2023/11/23 03:10:01;;;;;;;;;;;;;;;10.85;55.36;101110.53;4978714;27;98757;-66
2023/11/23 03:12:28;;;;;;;;;;;;;;;10.86;55.10;101095.19;4973172;27;98332;-66
2023/11/23 03:14:58;;;;;;;;;;;;;;;10.87;55.34;101096.78;4963660;27;100439;-62
2023/11/23 03:17:24;;;;;;;;;;;;;;;10.87;55.25;101089.50;4984000;27;98552;-61
2023/11/23 03:19:50;;;;;;;;;;;;;;;10.88;55.38;101088.44;4971616;27;111439;-66
2023/11/23 03:22:16;;;;;;;;;;;;;;;10.89;55.50;101097.38;4985703;27;106551;-62
2023/11/23 03:24:42;;;;;;;;;;;;;;;10.89;55.45;101082.00;4977698;27;99656;-67
2023/11/23 03:27:09;;;;;;;;;;;;;;;10.90;55.30;101093.59;4969926;27;98672;-61
2023/11/23 03:29:35;;;;;;;;;;;;;;;10.91;55.58;101092.53;4972906;27;98798;-66
2023/11/23 03:32:02;;;;;;;;;;;;;;;10.91;55.47;101095.22;4973796;27;98080;-66
2023/11/23 03:34:28;;;;;;;;;;;;;;;10.91;55.51;101085.25;4968788;27;98309;-61
2023/11/23 03:36:55;;;;;;;;;;;;;;;10.91;55.38;101079.84;4969692;27;108463;-66
2023/11/23 03:39:21;;;;;;;;;;;;;;;10.92;55.43;101081.47;4998277;27;99887;-66
2023/11/23 03:41:47;;;;;;;;;;;;;;;10.92;55.41;101067.97;5001473;27;98205;-66
2023/11/23 03:44:14;;;;;;;;;;;;;;;10.92;55.49;101057.19;4969772;27;127507;-66
2023/11/23 03:46:40;;;;;;;;;;;;;;;10.93;55.42;101064.22;4962596;27;98091;-66
2023/11/23 03:49:06;;;;;;;;;;;;;;;10.93;55.34;101055.34;5009855;27;98095;-62
2023/11/23 03:51:32;;;;;;;;;;;;;;;10.94;55.49;101056.97;4967752;27;99346;-61
2023/11/23 03:53:58;;;;;;;;;;;;;;;10.95;55.48;101045.91;4970866;27;128238;-61
2023/11/23 03:56:24;;;;;;;;;;;;;;;10.95;55.12;101039.69;4980327;27;98318;-62
2023/11/23 03:58:51;;;;;;;;;;;;;;;10.95;55.56;101045.91;4988816;27;98144;-62
2023/11/23 04:01:18;;;;;;;;;;;;;;;10.97;55.42;101042.97;4988276;27;100475;-66
2023/11/23 04:03:44;;;;;;;;;;;;;;;10.96;55.35;101044.81;4999655;27;98233;-62
2023/11/23 04:06:11;;;;;;;;;;;;;;;10.97;55.45;101042.97;4984416;27;99639;-62
2023/11/23 04:08:41;;;;;;;;;;;;;;;10.98;55.34;101031.09;4978352;27;98428;-62
2023/11/23 04:11:09;;;;;;;;;;;;;;;10.98;55.44;101042.69;5001629;27;98741;-61
2023/11/23 04:13:34;;;;;;;;;;;;;;;10.98;55.30;101034.59;4977183;27;97985;-66
2023/11/23 04:16:00;;;;;;;;;;;;;;;11.00;55.32;101045.97;4970717;27;129013;-62
2023/11/23 04:18:26;;;;;;;;;;;;;;;11.00;55.39;101029.78;4981401;27;116445;-66
2023/11/23 04:20:53;;;;;;;;;;;;;;;11.03;55.17;101044.63;4971256;27;100117;-66
2023/11/23 04:23:19;;;;;;;;;;;;;;;11.03;55.38;101039.22;4974800;27;99378;-62
2023/11/23 04:25:45;;;;;;;;;;;;;;;11.04;55.35;101039.00;4971635;27;126691;-66
2023/11/23 04:28:11;;;;;;;;;;;;;;;11.06;55.28;101026.03;5007920;27;98258;-61
2023/11/23 04:30:37;;;;;;;;;;;;;;;11.07;55.34;101024.97;4966030;27;122429;-62
2023/11/23 04:33:03;;;;;;;;;;;;;;;11.09;55.17;101023.91;4979127;27;102706;-62
2023/11/23 04:35:29;;;;;;;;;;;;;;;11.10;55.43;101029.03;4970430;27;97856;-62
2023/11/23 04:37:55;;;;;;;;;;;;;;;11.12;55.32;101015.28;4965498;27;121890;-66
2023/11/23 04:40:21;;;;;;;;;;;;;;;11.13;55.17;101023.13;4968878;27;98355;-62
2023/11/23 04:42:47;;;;;;;;;;;;;;;11.15;55.43;101014.78;4977897;27;120470;-62
2023/11/23 04:45:13;;;;;;;;;;;;;;;11.15;55.30;101012.88;4977034;27;99769;-62
2023/11/23 04:47:39;;;;;;;;;;;;;;;11.17;55.41;101021.56;4964662;27;98609;-61
2023/11/23 04:50:05;;;;;;;;;;;;;;;11.18;55.22;101009.69;4966409;27;98382;-61
2023/11/23 04:52:31;;;;;;;;;;;;;;;11.19;55.37;101003.19;4981503;27;98835;-62
2023/11/23 04:54:57;;;;;;;;;;;;;;;11.21;55.34;101005.66;4974085;27;99122;-67
2023/11/23 04:57:23;;;;;;;;;;;;;;;11.21;55.43;100990.28;4982565;27;100306;-66
2023/11/23 04:59:50;;;;;;;;;;;;;;;11.24;55.35;100976.28;4984156;27;100528;-66
2023/11/23 05:02:16;;;;;;;;;;;;;;;11.24;55.22;100968.19;4968462;27;97953;-61
2023/11/23 05:04:42;;;;;;;;;;;;;;;11.27;55.34;100969.53;4973777;27;99344;-62
2023/11/23 05:07:08;;;;;;;;;;;;;;;11.26;55.38;100966.00;4969871;27;109314;-66
2023/11/23 05:09:34;;;;;;;;;;;;;;;11.29;55.35;100975.50;4980668;27;98161;-61
2023/11/23 05:12:00;;;;;;;;;;;;;;;11.29;55.37;100978.19;4968307;27;107261;-66
2023/11/23 05:14:26;;;;;;;;;;;;;;;11.30;55.39;100975.22;4958209;27;98396;-66
2023/11/23 05:16:52;;;;;;;;;;;;;;;11.33;55.34;100973.09;4962428;27;122922;-68
2023/11/23 05:19:20;;;;;;;;;;;;;;;11.34;55.44;100970.13;4979882;27;98246;-67
2023/11/23 05:21:46;;;;;;;;;;;;;;;11.35;55.40;100976.31;4964657;27;98275;-62
2023/11/23 05:24:12;;;;;;;;;;;;;;;11.36;55.26;100978.78;4958177;27;102543;-62
2023/11/23 05:26:38;;;;;;;;;;;;;;;11.36;55.27;100976.09;4943595;27;122312;-68
2023/11/23 05:29:04;;;;;;;;;;;;;;;11.37;55.43;100971.50;4973281;27;98537;-67
2023/11/23 05:31:30;;;;;;;;;;;;;;;11.39;55.42;100958.53;4941291;27;98475;-63
2023/11/23 05:33:56;;;;;;;;;;;;;;;11.38;55.43;100971.22;4959693;27;119648;-62
2023/11/23 05:36:22;;;;;;;;;;;;;;;11.40;55.31;100968.28;4957624;27;97999;-62
2023/11/23 05:38:48;;;;;;;;;;;;;;;11.40;55.24;100962.88;4959116;27;99349;-62
2023/11/23 05:41:15;;;;;;;;;;;;;;;11.41;55.45;100951.81;4978931;27;97948;-62
2023/11/23 05:43:41;;;;;;;;;;;;;;;11.42;55.35;100947.22;4957939;27;99213;-62
2023/11/23 05:46:07;;;;;;;;;;;;;;;11.42;55.40;100952.63;4975409;27;98123;-67
2023/11/23 05:48:33;;;;;;;;;;;;;;;11.42;55.56;100966.13;4961586;27;98467;-67
2023/11/23 05:50:59;;;;;;;;;;;;;;;11.42;55.27;100963.41;4964815;27;98939;-67
2023/11/23 05:53:25;;;;;;;;;;;;;;;11.41;55.48;100951.81;4955418;27;98378;-62
2023/11/23 05:55:51;;;;;;;;;;;;;;;11.40;55.27;100955.59;4971424;27;119155;-67
2023/11/23 05:58:17;;;;;;;;;;;;;;;11.41;55.47;100949.13;4957987;27;98254;-67
2023/11/23 06:00:44;;;;;;;;;;;;;;;11.40;55.47;100950.19;4974416;27;98541;-62
2023/11/23 06:03:10;;;;;;;;;;;;;;;11.40;55.28;100944.78;4946568;28;99005;-66
2023/11/23 06:05:36;;;;;;;;;;;;;;;11.40;55.34;100957.47;4960603;27;98032;-62
2023/11/23 06:08:03;;;;;;;;;;;;;;;11.40;55.31;100958.28;4946551;27;98692;-67
2023/11/23 06:10:29;;;;;;;;;;;;;;;11.40;55.56;100962.88;4959402;27;98046;-67
2023/11/23 06:12:56;;;;;;;;;;;;;;;11.40;55.42;100962.88;4951594;27;98201;-62
2023/11/23 06:15:23;;;;;;;;;;;;;;;11.40;55.42;100958.28;4973546;27;98428;-62
2023/11/23 06:17:49;;;;;;;;;;;;;;;11.40;55.36;100955.59;4969045;27;98241;-67
2023/11/23 06:20:15;;;;;;;;;;;;;;;11.40;55.35;100941.28;5003490;27;98070;-67
2023/11/23 06:22:41;;;;;;;;;;;;;;;11.39;55.34;100937.75;4962594;27;98260;-62
2023/11/23 06:25:07;;;;;;;;;;;;;;;11.39;55.64;100934.25;4972146;27;98317;-62
2023/11/23 06:27:34;;;;;;;;;;;;;;;11.40;55.42;100925.91;4968557;27;100503;-67
2023/11/23 06:29:59;;;;;;;;;;;;;;;11.40;55.48;100922.41;4966074;27;98331;-67
2023/11/23 06:32:26;;;;;;;;;;;;;;;11.40;55.42;100915.09;4993097;27;126034;-62
2023/11/23 06:34:52;;;;;;;;;;;;;;;11.42;55.53;100922.94;4981266;27;122476;-67
2023/11/23 06:37:18;;;;;;;;;;;;;;;11.40;55.39;100915.09;4971725;27;100030;-67
2023/11/23 06:39:44;;;;;;;;;;;;;;;11.41;55.27;100913.22;4966878;27;128505;-67
2023/11/23 06:42:10;;;;;;;;;;;;;;;11.41;55.27;100915.91;4982929;27;130552;-67
2023/11/23 06:44:36;;;;;;;;;;;;;;;11.42;55.21;100914.84;4992875;27;98313;-67
2023/11/23 06:47:03;;;;;;;;;;;;;;;11.41;55.31;100910.53;4980380;27;98128;-67
2023/11/23 06:49:29;;;;;;;;;;;;;;;11.43;55.30;100911.84;4967904;27;98395;-63
2023/11/23 06:51:55;;;;;;;;;;;;;;;11.44;55.30;100893.81;4984590;27;98085;-66
2023/11/23 06:54:21;;;;;;;;;;;;;;;11.46;55.27;100888.94;4970647;27;98156;-63
2023/11/23 06:56:47;;;;;;;;;;;;;;;11.47;55.40;100880.56;4994120;27;100127;-67
2023/11/23 06:59:14;;;;;;;;;;;;;;;11.46;55.31;100873.56;4966034;27;98140;-62
2023/11/23 07:01:40;;;;;;;;;;;;;;;11.50;55.23;100881.94;4961423;27;98919;-62
2023/11/23 07:04:07;;;;;;;;;;;;;;;11.52;55.22;100883.31;4994963;27;121914;-67
2023/11/23 07:06:33;;;;;;;;;;;;;;;11.54;55.18;100886.53;4970145;27;99379;-67
2023/11/23 07:09:00;;;;;;;;;;;;;;;11.56;55.19;100883.59;4983538;27;98189;-67
2023/11/23 07:11:26;;;;;;;;;;;;;;;11.60;55.22;100867.69;4977450;27;98751;-62
2023/11/23 07:13:52;;;;;;;;;;;;;;;11.61;55.20;100882.81;4983688;27;114734;-62
2023/11/23 07:16:18;;;;;;;;;;;;;;;11.63;55.29;100880.63;5005587;27;129817;-67
2023/11/23 07:18:44;;;;;;;;;;;;;;;11.66;55.16;100872.81;4982118;27;99424;-65
2023/11/23 07:21:10;;;;;;;;;;;;;;;11.67;55.26;100870.94;4964423;27;98378;-67
2023/11/23 07:23:36;;;;;;;;;;;;;;;11.71;55.11;100869.31;4988805;27;122950;-67
2023/11/23 07:26:02;;;;;;;;;;;;;;;11.72;55.06;100863.66;4988905;27;98115;-67
2023/11/23 07:28:29;;;;;;;;;;;;;;;11.74;55.11;100855.28;4967356;27;99920;-62
2023/11/23 07:30:56;;;;;;;;;;;;;;;11.77;55.40;100860.97;4966998;27;99020;-67
2023/11/23 07:33:24;;;;;;;;;;;;;;;11.80;55.13;100863.16;4969264;27;98642;-66
2023/11/23 07:35:51;;;;;;;;;;;;;;;11.82;55.19;100851.25;4962770;27;98348;-62
2023/11/23 07:38:17;;;;;;;;;;;;;;;11.86;55.05;100852.38;4964389;27;98358;-67
2023/11/23 07:40:43;;;;;;;;;;;;;;;11.90;54.92;100856.19;4982922;27;98373;-62
2023/11/23 07:43:09;;;;;;;;;;;;;;;11.97;55.05;100854.84;4980295;27;98440;-62
2023/11/23 07:45:37;;;;;;;;;;;;;;;12.11;54.71;100843.53;4973078;27;98028;-67
2023/11/23 07:48:08;;;;;;;;;;;;;;;12.07;54.77;100840.56;4968495;27;98090;-67
2023/11/23 07:50:35;;;;;;;;;;;;;;;12.10;54.74;100848.09;4971772;27;98225;-62
2023/11/23 07:53:01;;;;;;;;;;;;;;;12.15;54.68;100837.31;4982512;27;97925;-62
2023/11/23 07:55:27;;;;;;;;;;;;;;;12.17;54.92;100828.94;4979724;27;117617;-62
2023/11/23 07:57:53;;;;;;;;;;;;;;;12.20;55.14;100815.69;4981307;27;98449;-67
2023/11/23 08:00:19;;;;;;;;;;;;;;;12.25;54.66;100823.81;4972191;27;129729;-67
2023/11/23 08:02:46;;;;;;;;;;;;;;;12.31;54.80;100821.13;4969668;27;98600;-63
2023/11/23 08:05:12;;;;;;;;;;;;;;;12.32;54.64;100814.63;4982027;27;98174;-62
2023/11/23 08:07:38;;;;;;;;;;;;;;;12.37;55.02;100795.69;4972460;27;98030;-67
2023/11/23 08:10:12;;;;;;;;;;;;;;;12.40;54.95;100801.38;4997674;27;98422;-62
2023/11/23 08:12:39;;;;;;;;;;;;;;;12.45;54.85;100814.88;4981953;27;98494;-63
2023/11/23 08:15:06;;;;;;;;;;;;;;;12.47;54.85;100820.03;4980584;27;98566;-67
2023/11/23 08:17:33;;;;;;;;;;;;;;;12.46;54.94;100813.81;4982975;27;99017;-67
2023/11/23 08:19:59;;;;;;;;;;;;;;;12.46;54.91;100815.72;4966295;27;98894;-62
2023/11/23 08:22:24;;;;;;;;;;;;;;;12.48;55.04;100814.34;5001906;27;98009;-62
2023/11/23 08:24:50;;;;;;;;;;;;;;;12.48;55.02;100808.94;4998940;27;98304;-67
2023/11/23 08:27:16;;;;;;;;;;;;;;;12.48;54.76;100811.63;4970618;27;127648;-67
2023/11/23 08:29:42;;;;;;;;;;;;;;;12.49;54.84;100809.75;4971720;27;98329;-67
2023/11/23 08:32:09;;;;;;;;;;;;;;;12.47;54.93;100798.41;4982723;27;98269;-62
2023/11/23 08:34:37;;;;;;;;;;;;;;;12.49;54.94;100820.56;4966415;27;99010;-67
2023/11/23 08:37:03;;;;;;;;;;;;;;;12.48;54.88;100800.81;4969909;27;98097;-67
2023/11/23 08:39:29;;;;;;;;;;;;;;;12.50;54.70;100797.88;4973277;27;98994;-62
2023/11/23 08:41:54;;;;;;;;;;;;;;;12.52;54.86;100820.84;4967709;27;118120;-63
2023/11/23 08:44:20;;;;;;;;;;;;;;;12.53;54.89;100814.34;4967959;27;127751;-62
2023/11/23 08:46:46;;;;;;;;;;;;;;;12.57;54.73;100803.78;4968458;27;98310;-67
2023/11/23 08:49:13;;;;;;;;;;;;;;;12.60;54.71;100800.53;4981367;27;99098;-67
2023/11/23 08:51:39;;;;;;;;;;;;;;;12.62;54.82;100787.56;4965118;27;98118;-62
2023/11/23 08:54:08;;;;;;;;;;;;;;;12.67;54.80;100787.56;4996066;27;99792;-62
2023/11/23 08:56:35;;;;;;;;;;;;;;;12.69;54.86;100773.75;4974019;27;98268;-68
2023/11/23 08:59:01;;;;;;;;;;;;;;;12.72;55.04;100784.03;4984088;27;97979;-67
2023/11/23 09:01:27;;;;;;;;;;;;;;;12.76;54.88;100785.91;4965746;27;98173;-67
2023/11/23 09:03:54;;;;;;;;;;;;;;;12.84;54.72;100776.41;4982456;27;105213;-62
2023/11/23 09:06:20;;;;;;;;;;;;;;;12.93;54.63;100769.38;4957231;27;98038;-62
2023/11/23 09:08:48;;;;;;;;;;;;;;;12.93;54.58;100774.78;4979324;27;98499;-67
2023/11/23 09:11:15;;;;;;;;;;;;;;;12.91;54.81;100765.31;4970638;27;98411;-67
2023/11/23 09:13:41;;;;;;;;;;;;;;;12.89;54.96;100770.19;4996268;27;104601;-62
2023/11/23 09:16:08;;;;;;;;;;;;;;;12.86;54.97;100768.84;4961006;27;113473;-62
2023/11/23 09:18:35;;;;;;;;;;;;;;;12.85;54.95;100761.00;4970921;27;98121;-62
2023/11/23 09:21:02;;;;;;;;;;;;;;;12.82;54.97;100751.56;4999394;27;98319;-66
2023/11/23 09:23:28;;;;;;;;;;;;;;;12.80;55.07;100761.81;4972161;27;98093;-67
2023/11/23 09:25:54;;;;;;;;;;;;;;;12.76;54.92;100739.94;4970415;27;98468;-62
2023/11/23 09:28:21;;;;;;;;;;;;;;;12.76;54.94;100739.13;4966184;27;98311;-67
2023/11/23 09:30:47;;;;;;;;;;;;;;;12.75;55.10;100741.00;4964073;27;98408;-62
2023/11/23 09:33:13;;;;;;;;;;;;;;;12.78;54.96;100723.44;4961637;27;99136;-62
2023/11/23 09:35:39;;;;;;;;;;;;;;;12.78;55.13;100712.63;4975281;27;98462;-66
2023/11/23 09:38:08;;;;;;;;;;;;;;;12.83;55.04;100699.06;5002206;27;97963;-62
2023/11/23 09:40:34;;;;;;;;;;;;;;;12.88;54.84;100693.63;4985120;27;98328;-62
2023/11/23 09:43:01;;;;;;;;;;;;;;;12.95;54.60;100688.72;4975895;27;99221;-62
2023/11/23 09:45:28;;;;;;;;;;;;;;;12.99;54.73;100695.19;4981109;27;98554;-63
2023/11/23 09:47:54;;;;;;;;;;;;;;;13.02;54.40;100680.31;4980102;27;98143;-62
2023/11/23 09:50:20;;;;;;;;;;;;;;;13.09;54.55;100674.63;4966569;27;98335;-62
2023/11/23 09:52:47;;;;;;;;;;;;;;;13.07;54.85;100676.78;4982199;27;104855;-62
2023/11/23 09:55:16;;;;;;;;;;;;;;;13.11;54.48;100675.94;4964008;27;98359;-63
2023/11/23 09:57:44;;;;;;;;;;;;;;;13.13;54.91;100662.13;4958363;27;98609;-66
2023/11/23 10:00:18;;;;;;;;;;;;;;;13.11;54.97;100648.06;4995380;27;98463;-62
2023/11/23 10:02:45;;;;;;;;;;;;;;;13.10;54.79;100647.25;4956562;27;98932;-66
2023/11/23 10:05:15;;;;;;;;;;;;;;;13.10;54.73;100633.72;4995818;27;98050;-67
2023/11/23 10:07:42;;;;;;;;;;;;;;;13.12;54.59;100633.44;4975951;27;98375;-67
2023/11/23 10:10:10;;;;;;;;;;;;;;;13.14;54.83;100623.16;4989379;27;97880;-67
2023/11/23 10:12:36;;;;;;;;;;;;;;;13.17;54.76;100601.75;4966090;27;98307;-62
2023/11/23 10:15:04;;;;;;;;;;;;;;;13.21;54.80;100610.13;4973794;27;99867;-66
2023/11/23 10:17:30;;;;;;;;;;;;;;;13.26;54.77;100597.38;4969546;27;98008;-62
2023/11/23 10:20:10;;;;;;;;;;;;;;;13.30;54.81;100588.69;4970878;27;98124;-62
2023/11/23 10:22:37;;;;;;;;;;;;;;;13.37;54.71;100579.16;4981263;27;98673;-67
2023/11/23 10:25:03;;;;;;;;;;;;;;;13.44;54.77;100554.44;4978830;27;98659;-67
2023/11/23 10:27:29;;;;;;;;;;;;;;;13.47;54.42;100552.00;4993396;27;98194;-67
2023/11/23 10:29:55;;;;;;;;;;;;;;;13.56;54.35;100554.06;4996256;27;98282;-67
2023/11/23 10:32:21;;;;;;;;;;;;;;;13.62;54.48;100550.25;4984073;27;98321;-67
2023/11/23 10:34:47;;;;;;;;;;;;;;;13.68;54.41;100543.69;4983750;27;100050;-62
2023/11/23 10:37:17;;;;;;;;;;;;;;;13.73;54.11;100530.91;4975648;27;98315;-67
2023/11/23 10:39:44;;;;;;;;;;;;;;;13.83;54.15;100516.44;4983367;27;98423;-62
2023/11/23 10:42:12;;;;;;;;;;;;;;;13.94;54.17;100522.53;4999211;27;98459;-67
2023/11/23 10:44:39;;;;;;;;;;;;;;;14.02;54.03;100513.78;4997842;27;98816;-67
2023/11/23 10:47:07;;;;;;;;;;;;;;;14.01;54.24;100517.59;4968343;27;98034;-63
2023/11/23 10:49:36;;;;;;;;;;;;;;;14.07;54.15;100515.63;4967382;27;98166;-67
2023/11/23 10:52:03;;;;;;;;;;;;;;;14.10;54.35;100504.22;4984177;27;98545;-62
2023/11/23 10:54:29;;;;;;;;;;;;;;;14.07;54.68;100500.19;4965907;27;98348;-67
2023/11/23 10:56:57;;;;;;;;;;;;;;;14.13;54.12;100493.59;4995315;27;98079;-67
2023/11/23 10:59:23;;;;;;;;;;;;;;;14.26;54.06;100489.34;4997193;27;98812;-67
2023/11/23 11:01:51;;;;;;;;;;;;;;;14.31;54.04;100469.53;4969526;27;97940;-67
2023/11/23 11:04:17;;;;;;;;;;;;;;;14.30;54.13;100467.91;4981286;27;107787;-67
2023/11/23 11:06:44;;;;;;;;;;;;;;;14.29;54.28;100480.66;4963532;27;107466;-62
2023/11/23 11:09:14;;;;;;;;;;;;;;;14.25;54.48;100476.91;4982915;27;98022;-66
2023/11/23 11:11:54;;;;;;;;;;;;;;;14.21;54.42;100465.03;4962281;27;99858;-67
2023/11/23 11:14:33;;;;;;;;;;;;;;;14.18;54.36;100481.88;4961601;27;99449;-67
2023/11/23 11:17:04;;;;;;;;;;;;;;;14.19;54.68;100478.09;4977795;27;98185;-66
2023/11/23 11:19:47;;;;;;;;;;;;;;;14.20;54.33;100469.66;4992720;27;98447;-67
2023/11/23 11:22:14;;;;;;;;;;;;;;;14.16;54.57;100455.06;4970198;27;98805;-67
2023/11/23 11:24:41;;;;;;;;;;;;;;;14.18;54.45;100449.34;4972515;27;98198;-62
2023/11/23 11:27:13;;;;;;;;;;;;;;;14.21;54.54;100438.72;4966768;27;98210;-62
2023/11/23 11:29:53;;;;;;;;;;;;;;;14.21;54.38;100437.94;4975904;27;98401;-67
2023/11/23 11:32:22;;;;;;;;;;;;;;;14.12;54.80;100447.81;4984094;27;98071;-62
2023/11/23 11:34:58;;;;;;;;;;;;;;;14.12;54.72;100432.34;4987658;27;99535;-62
2023/11/23 11:37:24;;;;;;;;;;;;;;;14.11;54.75;100438.88;4982720;27;97991;-66
2023/11/23 11:39:50;;;;;;;;;;;;;;;14.10;54.51;100426.41;4981276;27;98255;-67
2023/11/23 11:42:19;;;;;;;;;;;;;;;14.07;54.60;100409.91;4982882;27;123285;-66
2023/11/23 11:44:45;;;;;;;;;;;;;;;14.05;54.72;100398.59;4988509;27;98008;-67
2023/11/23 11:47:14;;;;;;;;;;;;;;;14.00;54.74;100407.59;4963903;27;99937;-62
2023/11/23 11:49:40;;;;;;;;;;;;;;;13.99;54.70;100414.91;4985337;27;98035;-67
2023/11/23 11:52:07;;;;;;;;;;;;;;;13.95;54.93;100403.06;4968010;27;99803;-62
2023/11/23 11:54:33;;;;;;;;;;;;;;;13.91;55.01;100401.19;4972224;27;98984;-67
2023/11/23 11:57:02;;;;;;;;;;;;;;;13.92;55.02;100403.63;4976468;27;98158;-63
2023/11/23 11:59:30;;;;;;;;;;;;;;;13.87;54.92;100402.88;4970109;27;98540;-66
2023/11/23 12:01:57;;;;;;;;;;;;;;;13.86;54.81;100404.78;4965390;27;99046;-63
2023/11/23 12:04:23;;;;;;;;;;;;;;;13.87;54.92;100387.44;4981648;27;98171;-63
2023/11/23 12:06:49;;;;;;;;;;;;;;;13.90;54.62;100389.53;4983102;27;98034;-63
2023/11/23 12:09:19;;;;;;;;;;;;;;;13.90;54.60;100381.41;4967911;27;99681;-66
2023/11/23 12:11:46;;;;;;;;;;;;;;;13.88;54.70;100378.22;4988224;27;99559;-67
2023/11/23 12:14:12;;;;;;;;;;;;;;;13.88;54.87;100369.28;4978355;27;98101;-63
2023/11/23 12:16:38;;;;;;;;;;;;;;;13.90;55.17;100356.22;4990518;27;98987;-62
2023/11/23 12:19:21;;;;;;;;;;;;;;;13.92;54.61;100354.84;4999749;27;97838;-66
2023/11/23 12:21:58;;;;;;;;;;;;;;;13.94;54.73;100351.84;4987274;27;98471;-67
2023/11/23 12:24:28;;;;;;;;;;;;;;;13.93;54.61;100350.22;4980419;27;100380;-68
2023/11/23 12:26:55;;;;;;;;;;;;;;;13.92;54.90;100340.50;4971259;27;98481;-62
2023/11/23 12:29:22;;;;;;;;;;;;;;;13.94;54.74;100333.66;4972700;27;98326;-62
2023/11/23 12:31:49;;;;;;;;;;;;;;;13.98;54.61;100337.41;4971020;27;99693;-62
2023/11/23 12:34:15;;;;;;;;;;;;;;;14.01;54.82;100333.31;4983892;27;98625;-62